Time;durP1;ratioP1;P1;durP2;ratioP2;P2;SDS_P1;SDS_P2;PMS_P1;PMS_P2;Temp;Humidity;BMP_temperature;BMP_pressure;BME280_temperature;BME280_humidity;BME280_pressure;Samples;Min_cycle;Max_cycle;Signal;HPM_P1;HPM_P2
2022/01/24 00:01:09;;;;;;;30.48;15.85;;;;;;;;;;4995372;28;20586;-68
2022/01/24 00:03:37;;;;;;;32.42;16.45;;;;;;;;;;4995345;28;20054;-68
2022/01/24 00:06:08;;;;;;;28.42;15.23;;;;;;;;;;4995320;28;20054;-68
2022/01/24 00:08:36;;;;;;;30.83;16.45;;;;;;;;;;4994773;28;20093;-68
2022/01/24 00:11:07;;;;;;;30.42;15.00;;;;;;;;;;4995181;28;20057;-68
2022/01/24 00:16:25;;;;;;;26.05;14.90;;;;;;;;;;4993359;28;20034;-68
2022/01/24 00:27:08;;;;;;;30.85;14.90;;;;;;;;;;4994548;28;20119;-68
2022/01/24 00:29:35;;;;;;;27.17;14.50;;;;;;;;;;4994650;28;20050;-68
2022/01/24 00:32:02;;;;;;;26.80;14.32;;;;;;;;;;4994816;28;20053;-68
2022/01/24 00:34:32;;;;;;;28.23;13.80;;;;;;;;;;4995062;28;20062;-68
2022/01/24 00:37:00;;;;;;;22.77;14.18;;;;;;;;;;4993968;28;20503;-67
2022/01/24 00:39:27;;;;;;;24.33;13.15;;;;;;;;;;4993881;28;20061;-67
2022/01/24 00:42:05;;;;;;;24.75;12.40;;;;;;;;;;4995053;28;20568;-67
2022/01/24 00:44:47;;;;;;;25.85;13.13;;;;;;;;;;4994899;28;20141;-67
2022/01/24 00:47:20;;;;;;;22.58;12.95;;;;;;;;;;4994192;28;20054;-67
2022/01/24 00:52:57;;;;;;;26.10;13.30;;;;;;;;;;4994774;28;20058;-68
2022/01/24 00:55:24;;;;;;;25.10;12.18;;;;;;;;;;4993888;28;20057;-68
2022/01/24 00:57:51;;;;;;;23.83;13.30;;;;;;;;;;4982604;28;20117;-68
2022/01/24 01:00:19;;;;;;;23.25;12.82;;;;;;;;;;4974904;28;20058;-68
2022/01/24 01:02:46;;;;;;;25.48;12.82;;;;;;;;;;4978809;28;20068;-68
2022/01/24 01:05:30;;;;;;;21.77;11.48;;;;;;;;;;4984148;28;20514;-68
2022/01/24 01:08:12;;;;;;;20.88;11.52;;;;;;;;;;4977185;28;20551;-68
2022/01/24 01:18:52;;;;;;;23.25;11.88;;;;;;;;;;5012122;28;20053;-59
2022/01/24 01:21:21;;;;;;;21.60;10.75;;;;;;;;;;5012230;28;20052;-60
2022/01/24 01:23:53;;;;;;;21.27;10.52;;;;;;;;;;5012425;28;20045;-59
2022/01/24 01:26:27;;;;;;;20.88;11.68;;;;;;;;;;5012656;28;20144;-59
2022/01/24 01:28:59;;;;;;;19.95;10.40;;;;;;;;;;5012388;28;20112;-59
2022/01/24 01:31:36;;;;;;;17.92;9.95;;;;;;;;;;5012290;28;20103;-60
2022/01/24 01:34:13;;;;;;;18.17;9.35;;;;;;;;;;5012311;28;20058;-57
2022/01/24 01:37:07;;;;;;;19.75;10.95;;;;;;;;;;5012391;28;20057;-58
2022/01/24 01:53:47;;;;;;;19.33;10.07;;;;;;;;;;5012233;28;20522;-59
2022/01/24 01:56:14;;;;;;;18.60;11.15;;;;;;;;;;5012122;28;20057;-58
2022/01/24 01:58:41;;;;;;;19.33;10.63;;;;;;;;;;5011923;28;20418;-58
2022/01/24 02:01:08;;;;;;;21.02;10.80;;;;;;;;;;5011854;28;20050;-59
2022/01/24 02:03:35;;;;;;;20.95;11.43;;;;;;;;;;5012107;28;20053;-57
2022/01/24 02:06:02;;;;;;;19.33;11.40;;;;;;;;;;5011945;28;20417;-59
2022/01/24 02:08:32;;;;;;;21.00;11.73;;;;;;;;;;5011625;28;20072;-57
2022/01/24 02:10:59;;;;;;;19.80;11.80;;;;;;;;;;5012394;28;20108;-55
2022/01/24 02:13:27;;;;;;;19.05;10.77;;;;;;;;;;5011981;28;20046;-58
2022/01/24 02:16:04;;;;;;;21.98;10.95;;;;;;;;;;5015830;28;20053;-59
2022/01/24 02:18:41;;;;;;;22.42;11.25;;;;;;;;;;5015534;28;20083;-57
2022/01/24 02:21:24;;;;;;;20.38;10.48;;;;;;;;;;5015630;28;20046;-57
2022/01/24 02:23:57;;;;;;;21.60;12.13;;;;;;;;;;5016001;28;20058;-59
2022/01/24 02:26:24;;;;;;;23.20;10.88;;;;;;;;;;5015594;28;20053;-59
2022/01/24 02:29:03;;;;;;;20.55;10.82;;;;;;;;;;5015395;28;20056;-59
2022/01/24 02:31:40;;;;;;;19.20;10.75;;;;;;;;;;5015606;28;20140;-57
2022/01/24 02:34:20;;;;;;;19.55;10.73;;;;;;;;;;5015399;28;20057;-59
2022/01/24 02:36:48;;;;;;;20.48;10.93;;;;;;;;;;5015336;28;20077;-58
2022/01/24 02:39:43;;;;;;;21.20;10.95;;;;;;;;;;5015191;28;20046;-59
2022/01/24 02:50:40;;;;;;;22.95;11.55;;;;;;;;;;5015238;28;20478;-58
2022/01/24 02:53:07;;;;;;;19.75;10.10;;;;;;;;;;5015182;28;20093;-59
2022/01/24 02:55:36;;;;;;;21.05;11.75;;;;;;;;;;5015083;28;20050;-57
2022/01/24 02:58:03;;;;;;;20.17;10.15;;;;;;;;;;5014716;28;20060;-59
2022/01/24 03:00:30;;;;;;;21.10;11.75;;;;;;;;;;5014861;28;20049;-59
2022/01/24 03:02:57;;;;;;;22.40;11.25;;;;;;;;;;5014932;28;20049;-59
2022/01/24 03:05:25;;;;;;;21.52;11.32;;;;;;;;;;5015094;28;20427;-59
2022/01/24 03:07:52;;;;;;;23.17;11.35;;;;;;;;;;5014605;28;20050;-59
2022/01/24 03:10:27;;;;;;;18.92;10.20;;;;;;;;;;5014862;28;20046;-57
2022/01/24 03:13:10;;;;;;;18.42;11.00;;;;;;;;;;5015152;28;20366;-59
2022/01/24 03:15:37;;;;;;;20.42;10.70;;;;;;;;;;5015028;28;20475;-58
2022/01/24 03:18:04;;;;;;;20.75;10.02;;;;;;;;;;5014358;28;20061;-59
2022/01/24 03:20:31;;;;;;;20.48;10.40;;;;;;;;;;5014925;28;20056;-58
2022/01/24 03:22:58;;;;;;;21.80;11.35;;;;;;;;;;5014677;28;20061;-59
2022/01/24 03:25:25;;;;;;;18.90;10.27;;;;;;;;;;5013600;28;20054;-55
2022/01/24 03:27:52;;;;;;;17.80;10.10;;;;;;;;;;5014125;28;20046;-59
2022/01/24 03:30:21;;;;;;;17.95;9.45;;;;;;;;;;5014443;28;20441;-59
2022/01/24 03:32:48;;;;;;;20.38;10.73;;;;;;;;;;5014465;28;20050;-59
2022/01/24 03:35:15;;;;;;;21.10;10.55;;;;;;;;;;5014467;28;20042;-59
2022/01/24 03:37:42;;;;;;;20.80;11.55;;;;;;;;;;5014011;28;20046;-58
2022/01/24 03:40:10;;;;;;;21.88;10.82;;;;;;;;;;5014307;28;20133;-58
2022/01/24 03:42:37;;;;;;;19.00;10.77;;;;;;;;;;5014173;28;20053;-58
2022/01/24 03:45:07;;;;;;;17.65;11.13;;;;;;;;;;5014302;28;20173;-59
2022/01/24 03:48:01;;;;;;;21.25;11.43;;;;;;;;;;5013991;28;20097;-57
2022/01/24 03:50:28;;;;;;;21.30;11.02;;;;;;;;;;5014332;28;20609;-59
2022/01/24 03:52:55;;;;;;;22.83;11.27;;;;;;;;;;5013995;28;20549;-58
2022/01/24 03:55:22;;;;;;;19.63;10.80;;;;;;;;;;5014113;28;20050;-59
2022/01/24 03:57:49;;;;;;;18.95;10.63;;;;;;;;;;5013497;28;20057;-56
2022/01/24 04:00:16;;;;;;;20.15;10.38;;;;;;;;;;5014015;28;20045;-59
2022/01/24 04:02:45;;;;;;;21.58;10.55;;;;;;;;;;5013726;28;20061;-56
2022/01/24 04:05:12;;;;;;;20.80;10.73;;;;;;;;;;5013606;28;20052;-58
2022/01/24 04:07:40;;;;;;;22.10;11.02;;;;;;;;;;5013368;28;20052;-59
2022/01/24 04:10:08;;;;;;;20.75;12.13;;;;;;;;;;5013666;28;20129;-59
2022/01/24 04:12:38;;;;;;;18.55;10.85;;;;;;;;;;5013924;28;20506;-59
2022/01/24 04:15:23;;;;;;;19.17;11.53;;;;;;;;;;5013946;28;20107;-59
2022/01/24 04:18:09;;;;;;;20.45;10.13;;;;;;;;;;5013024;28;20707;-59
2022/01/24 04:23:21;;;;;;;19.67;11.02;;;;;;;;;;5013958;28;20056;-58
2022/01/24 04:25:48;;;;;;;21.52;11.60;;;;;;;;;;5013409;28;20165;-57
2022/01/24 04:28:15;;;;;;;20.73;11.23;;;;;;;;;;5013158;28;20496;-58
2022/01/24 04:30:42;;;;;;;22.67;11.48;;;;;;;;;;5013431;28;20285;-58
2022/01/24 04:33:11;;;;;;;21.88;11.23;;;;;;;;;;5013476;28;20507;-59
2022/01/24 04:35:38;;;;;;;20.67;10.88;;;;;;;;;;5013289;28;20499;-59
2022/01/24 04:38:05;;;;;;;22.27;11.73;;;;;;;;;;5012732;28;20060;-57
2022/01/24 04:40:32;;;;;;;20.98;11.63;;;;;;;;;;5013289;28;20054;-57
2022/01/24 04:43:20;;;;;;;20.65;11.15;;;;;;;;;;5012969;28;20050;-57
2022/01/24 04:46:05;;;;;;;20.92;12.02;;;;;;;;;;5013503;28;20396;-56
2022/01/24 04:51:34;;;;;;;19.27;11.32;;;;;;;;;;4987529;28;20143;-59
2022/01/24 04:56:51;;;;;;;25.55;12.85;;;;;;;;;;4997176;28;20525;-59
2022/01/24 04:59:18;;;;;;;21.10;11.80;;;;;;;;;;5012893;28;20064;-59
2022/01/24 05:01:45;;;;;;;22.75;12.23;;;;;;;;;;5012799;28;20061;-59
2022/01/24 05:04:15;;;;;;;21.05;12.15;;;;;;;;;;5012775;28;20049;-59
2022/01/24 05:06:42;;;;;;;22.75;12.27;;;;;;;;;;5012521;28;20060;-59
2022/01/24 05:09:09;;;;;;;20.45;11.43;;;;;;;;;;5012741;28;20402;-59
2022/01/24 05:11:43;;;;;;;20.95;11.77;;;;;;;;;;5012612;28;20511;-58
2022/01/24 05:25:09;;;;;;;21.70;11.77;;;;;;;;;;5012483;28;20076;-58
2022/01/24 05:27:36;;;;;;;23.05;12.77;;;;;;;;;;5012142;28;20046;-59
2022/01/24 05:30:04;;;;;;;22.92;11.77;;;;;;;;;;5012513;28;20048;-57
2022/01/24 05:32:31;;;;;;;20.90;12.15;;;;;;;;;;5012317;28;20486;-58
2022/01/24 05:34:59;;;;;;;20.58;11.65;;;;;;;;;;5012180;28;20058;-58
2022/01/24 05:37:26;;;;;;;22.83;12.48;;;;;;;;;;5012080;28;20418;-58
2022/01/24 05:39:53;;;;;;;21.75;12.02;;;;;;;;;;5012239;28;20052;-57
2022/01/24 05:42:21;;;;;;;20.52;11.52;;;;;;;;;;5012252;28;20057;-59
2022/01/24 05:44:49;;;;;;;21.00;11.38;;;;;;;;;;5012587;28;20077;-59
2022/01/24 05:47:17;;;;;;;22.55;13.02;;;;;;;;;;5011975;28;20054;-59
2022/01/24 05:49:44;;;;;;;22.17;11.18;;;;;;;;;;5011795;28;20047;-59
2022/01/24 05:52:12;;;;;;;21.02;11.93;;;;;;;;;;5012069;28;20119;-58
2022/01/24 05:54:40;;;;;;;21.27;11.90;;;;;;;;;;5012303;28;20110;-60
2022/01/24 05:57:08;;;;;;;22.25;11.90;;;;;;;;;;5011831;28;20052;-59
2022/01/24 05:59:35;;;;;;;23.33;11.63;;;;;;;;;;5012143;28;20050;-60
2022/01/24 06:02:03;;;;;;;22.00;12.55;;;;;;;;;;5011916;28;20056;-60
2022/01/24 06:04:30;;;;;;;22.13;11.98;;;;;;;;;;5012074;28;20089;-60
2022/01/24 06:06:57;;;;;;;22.67;11.27;;;;;;;;;;5011772;28;20534;-60
2022/01/24 06:09:25;;;;;;;24.23;13.15;;;;;;;;;;5011934;28;20050;-59
2022/01/24 06:11:52;;;;;;;22.58;11.65;;;;;;;;;;5011915;28;20058;-59
2022/01/24 06:14:19;;;;;;;23.42;11.50;;;;;;;;;;5011583;28;20124;-57
2022/01/24 06:16:46;;;;;;;21.17;10.63;;;;;;;;;;5011626;28;20054;-59
2022/01/24 06:19:13;;;;;;;25.23;12.95;;;;;;;;;;5011755;28;20061;-59
2022/01/24 06:21:44;;;;;;;24.73;12.43;;;;;;;;;;5011736;28;20076;-59
2022/01/24 06:24:11;;;;;;;22.40;11.77;;;;;;;;;;5011461;28;20054;-60
2022/01/24 06:26:40;;;;;;;21.92;12.82;;;;;;;;;;5011526;28;20558;-59
2022/01/24 06:29:07;;;;;;;23.58;12.52;;;;;;;;;;5011370;28;20065;-58
2022/01/24 06:31:34;;;;;;;21.85;12.00;;;;;;;;;;5011638;28;20252;-59
2022/01/24 06:34:00;;;;;;;22.48;11.95;;;;;;;;;;5011851;28;20054;-60
2022/01/24 06:36:27;;;;;;;25.65;12.40;;;;;;;;;;5011288;28;20061;-59
2022/01/24 06:38:54;;;;;;;22.58;12.45;;;;;;;;;;5011691;28;20471;-57
2022/01/24 06:41:27;;;;;;;24.80;12.13;;;;;;;;;;5011365;28;20061;-61
2022/01/24 06:43:55;;;;;;;22.67;13.02;;;;;;;;;;5011625;28;20144;-58
2022/01/24 06:46:22;;;;;;;25.40;12.65;;;;;;;;;;5011588;28;20056;-54
2022/01/24 06:48:49;;;;;;;23.85;11.90;;;;;;;;;;5011438;28;20046;-58
2022/01/24 06:51:18;;;;;;;22.33;11.90;;;;;;;;;;5011684;28;20056;-56
2022/01/24 06:53:46;;;;;;;22.80;11.98;;;;;;;;;;5011685;28;20414;-55
2022/01/24 06:56:13;;;;;;;22.13;11.77;;;;;;;;;;5011887;28;20161;-55
2022/01/24 06:58:40;;;;;;;22.48;11.07;;;;;;;;;;5011219;28;20095;-58
2022/01/24 07:01:09;;;;;;;23.52;11.52;;;;;;;;;;5012648;28;20042;-55
2022/01/24 07:03:36;;;;;;;20.00;10.18;;;;;;;;;;5014940;28;20052;-57
2022/01/24 07:06:03;;;;;;;21.77;10.45;;;;;;;;;;5014998;28;20430;-58
2022/01/24 07:08:30;;;;;;;24.90;11.10;;;;;;;;;;5014615;28;20045;-59
2022/01/24 07:10:57;;;;;;;19.02;10.13;;;;;;;;;;5014986;28;20054;-56
2022/01/24 07:13:24;;;;;;;23.35;11.18;;;;;;;;;;5014675;28;20053;-58
2022/01/24 07:15:54;;;;;;;22.42;12.18;;;;;;;;;;5014797;28;20050;-55
2022/01/24 07:21:07;;;;;;;21.50;10.05;;;;;;;;;;4995398;28;20077;-70
2022/01/24 07:23:35;;;;;;;18.60;9.90;;;;;;;;;;4994513;28;20081;-70
2022/01/24 07:26:02;;;;;;;20.30;10.23;;;;;;;;;;4995100;28;20061;-70
2022/01/24 07:28:29;;;;;;;19.15;11.00;;;;;;;;;;4994745;28;20054;-70
2022/01/24 07:30:57;;;;;;;19.63;10.40;;;;;;;;;;4995158;28;20054;-70
2022/01/24 07:33:25;;;;;;;20.98;10.82;;;;;;;;;;4995052;28;20046;-71
2022/01/24 07:35:52;;;;;;;17.98;10.23;;;;;;;;;;4995475;28;20054;-68
2022/01/24 07:38:19;;;;;;;17.20;10.07;;;;;;;;;;4994480;28;20051;-68
2022/01/24 07:40:48;;;;;;;21.35;10.85;;;;;;;;;;4995082;28;20050;-70
2022/01/24 07:43:15;;;;;;;19.58;10.32;;;;;;;;;;4994756;28;20407;-69
2022/01/24 07:45:44;;;;;;;18.30;10.45;;;;;;;;;;4995119;28;20133;-69
2022/01/24 07:48:12;;;;;;;18.25;10.15;;;;;;;;;;4994502;28;20050;-68
2022/01/24 07:50:44;;;;;;;23.50;10.70;;;;;;;;;;4994735;28;20081;-69
2022/01/24 07:53:12;;;;;;;20.05;11.27;;;;;;;;;;4994952;28;20054;-69
2022/01/24 07:55:40;;;;;;;20.00;10.27;;;;;;;;;;4995135;28;20050;-69
2022/01/24 07:58:08;;;;;;;23.65;11.68;;;;;;;;;;4994409;28;20051;-70
2022/01/24 08:00:35;;;;;;;24.15;11.52;;;;;;;;;;4994336;28;20567;-69
2022/01/24 08:03:03;;;;;;;24.58;11.88;;;;;;;;;;4994473;28;20062;-70
2022/01/24 08:05:30;;;;;;;25.58;11.50;;;;;;;;;;4994616;28;20069;-68
2022/01/24 08:07:58;;;;;;;28.20;11.35;;;;;;;;;;4994388;28;20144;-69
2022/01/24 08:10:25;;;;;;;25.00;11.55;;;;;;;;;;4994538;28;20054;-70
2022/01/24 08:12:52;;;;;;;25.55;11.52;;;;;;;;;;4989763;28;20061;-70
2022/01/24 08:15:19;;;;;;;25.67;11.43;;;;;;;;;;4952802;28;20533;-70
2022/01/24 08:17:47;;;;;;;28.10;13.68;;;;;;;;;;4953225;29;20090;-70
2022/01/24 08:20:16;;;;;;;25.73;11.18;;;;;;;;;;4955092;29;20055;-69
2022/01/24 08:22:43;;;;;;;28.23;13.13;;;;;;;;;;4969980;28;20051;-69
2022/01/24 08:25:13;;;;;;;29.63;12.88;;;;;;;;;;4972592;28;20057;-69
2022/01/24 08:27:40;;;;;;;29.88;12.82;;;;;;;;;;4972813;28;20074;-69
2022/01/24 08:30:10;;;;;;;29.55;12.13;;;;;;;;;;4972478;28;20137;-69
2022/01/24 08:32:37;;;;;;;24.70;11.00;;;;;;;;;;4972936;28;20400;-69
2022/01/24 08:35:05;;;;;;;30.38;12.38;;;;;;;;;;4972971;28;20050;-68
2022/01/24 08:37:33;;;;;;;23.30;10.63;;;;;;;;;;4972362;28;20053;-68
2022/01/24 08:40:00;;;;;;;27.00;11.38;;;;;;;;;;4972662;28;20414;-69
2022/01/24 08:42:36;;;;;;;22.80;10.80;;;;;;;;;;4971186;28;20057;-69
2022/01/24 08:47:47;;;;;;;27.25;10.70;;;;;;;;;;4972202;28;20531;-69
2022/01/24 08:50:14;;;;;;;25.35;11.07;;;;;;;;;;4972152;28;20530;-70
2022/01/24 08:52:41;;;;;;;26.08;10.60;;;;;;;;;;4972070;28;20526;-70
2022/01/24 08:55:09;;;;;;;23.67;10.93;;;;;;;;;;4972590;28;20070;-71
2022/01/24 08:57:38;;;;;;;25.55;10.88;;;;;;;;;;4971879;28;20043;-68
2022/01/24 09:00:07;;;;;;;24.10;9.85;;;;;;;;;;4972442;28;20059;-68
2022/01/24 09:02:35;;;;;;;27.42;11.50;;;;;;;;;;4972119;28;20412;-70
2022/01/24 09:05:02;;;;;;;26.25;11.80;;;;;;;;;;4971906;28;20050;-70
2022/01/24 09:07:30;;;;;;;27.30;12.73;;;;;;;;;;4971509;28;20054;-69
2022/01/24 09:09:57;;;;;;;25.33;10.98;;;;;;;;;;4972092;28;20050;-70
2022/01/24 09:12:24;;;;;;;27.25;11.20;;;;;;;;;;4972038;28;20491;-70
2022/01/24 09:14:53;;;;;;;25.38;10.82;;;;;;;;;;4971793;28;20137;-71
2022/01/24 09:17:20;;;;;;;31.77;13.05;;;;;;;;;;4971211;28;20090;-70
2022/01/24 09:19:47;;;;;;;29.80;12.85;;;;;;;;;;4971992;28;20050;-68
2022/01/24 09:22:14;;;;;;;28.00;10.82;;;;;;;;;;4971889;28;20051;-69
2022/01/24 09:24:41;;;;;;;26.95;11.07;;;;;;;;;;4971369;28;20051;-70
2022/01/24 09:27:08;;;;;;;26.58;10.90;;;;;;;;;;4971391;28;20061;-72
2022/01/24 09:29:35;;;;;;;27.95;10.68;;;;;;;;;;4972315;28;20050;-67
2022/01/24 09:32:04;;;;;;;27.13;10.13;;;;;;;;;;4971970;28;20057;-70
2022/01/24 09:34:33;;;;;;;27.55;11.30;;;;;;;;;;4971684;28;20050;-70
2022/01/24 09:37:01;;;;;;;26.75;10.98;;;;;;;;;;4971280;28;20089;-70
2022/01/24 09:39:28;;;;;;;27.17;10.98;;;;;;;;;;4971673;28;20417;-69
2022/01/24 09:41:55;;;;;;;27.23;10.82;;;;;;;;;;4972104;28;20077;-69
2022/01/24 09:44:23;;;;;;;23.33;10.13;;;;;;;;;;4971530;28;20134;-69
2022/01/24 09:46:50;;;;;;;27.98;10.85;;;;;;;;;;4971021;28;20047;-70
2022/01/24 09:49:18;;;;;;;25.50;10.55;;;;;;;;;;4971478;28;20138;-69
2022/01/24 09:51:45;;;;;;;27.95;11.73;;;;;;;;;;4971593;28;20061;-69
2022/01/24 09:54:13;;;;;;;25.17;9.48;;;;;;;;;;4956739;28;20441;-69
2022/01/24 09:56:41;;;;;;;25.48;10.95;;;;;;;;;;4952119;28;20062;-69
2022/01/24 09:59:09;;;;;;;27.25;11.27;;;;;;;;;;4951883;28;20102;-69
2022/01/24 10:01:37;;;;;;;24.83;10.35;;;;;;;;;;4950783;28;20066;-69
2022/01/24 10:04:15;;;;;;;28.63;11.25;;;;;;;;;;4951890;29;20106;-69
2022/01/24 10:07:07;;;;;;;28.25;11.07;;;;;;;;;;4951759;29;20059;-69
2022/01/24 10:09:37;;;;;;;24.20;10.90;;;;;;;;;;4951852;29;20132;-70
2022/01/24 10:12:12;;;;;;;26.83;11.70;;;;;;;;;;4951724;29;20065;-69
2022/01/24 10:17:27;;;;;;;25.90;10.98;;;;;;;;;;4951625;29;20099;-70
2022/01/24 10:19:55;;;;;;;27.48;10.60;;;;;;;;;;4951885;29;20138;-70
2022/01/24 10:22:26;;;;;;;27.52;11.20;;;;;;;;;;4951911;28;20051;-70
2022/01/24 10:24:56;;;;;;;;;;;;;;;;;;4952495;29;20106;-69
2022/01/24 10:27:24;;;;;;;28.05;10.95;;;;;;;;;;4951555;29;20044;-70
2022/01/24 10:29:54;;;;;;;26.73;11.65;;;;;;;;;;4952001;29;20110;-73
2022/01/24 10:32:33;;;;;;;31.33;13.17;;;;;;;;;;4952200;29;20051;-70
2022/01/24 10:35:22;;;;;;;22.85;10.52;;;;;;;;;;4954268;28;20086;-70
2022/01/24 10:37:54;;;;;;;20.77;11.05;;;;;;;;;;4955174;28;20163;-70
2022/01/24 10:40:46;;;;;;;22.65;10.60;;;;;;;;;;4955948;29;20110;-72
2022/01/24 10:43:19;;;;;;;23.77;10.27;;;;;;;;;;4955315;29;20074;-71
2022/01/24 10:45:47;;;;;;;21.48;10.25;;;;;;;;;;4955258;29;20058;-69
2022/01/24 10:48:15;;;;;;;25.10;10.95;;;;;;;;;;4955156;29;20054;-71
2022/01/24 10:50:42;;;;;;;22.38;10.25;;;;;;;;;;4955654;28;20083;-69
2022/01/24 10:53:16;;;;;;;21.75;10.65;;;;;;;;;;4955393;29;20063;-71
2022/01/24 10:55:45;;;;;;;24.20;11.02;;;;;;;;;;4955037;29;20057;-71
2022/01/24 10:58:16;;;;;;;23.42;10.93;;;;;;;;;;4954910;29;20097;-70
2022/01/24 11:00:43;;;;;;;;;;;;;;;;;;4959677;28;20408;-71
2022/01/24 11:03:18;;;;;;;23.02;10.82;;;;;;;;;;4958269;28;20401;-69
2022/01/24 11:05:45;;;;;;;25.58;11.65;;;;;;;;;;4962728;28;20408;-70
2022/01/24 11:08:15;;;;;;;23.23;11.38;;;;;;;;;;4962800;28;20058;-69
2022/01/24 11:10:44;;;;;;;24.02;10.80;;;;;;;;;;4961714;28;20164;-70
2022/01/24 11:13:13;;;;;;;26.52;11.98;;;;;;;;;;4963467;28;20063;-72
2022/01/24 11:15:48;;;;;;;25.42;12.18;;;;;;;;;;4963570;28;20054;-71
2022/01/24 11:18:16;;;;;;;25.08;11.60;;;;;;;;;;4967083;28;20097;-70
2022/01/24 11:20:46;;;;;;;24.70;10.27;;;;;;;;;;4963155;28;20043;-69
2022/01/24 11:23:20;;;;;;;27.30;11.18;;;;;;;;;;4963409;28;20521;-70
2022/01/24 11:25:50;;;;;;;26.75;11.18;;;;;;;;;;4964056;28;20142;-71
2022/01/24 11:28:18;;;;;;;24.50;11.32;;;;;;;;;;4963056;28;20083;-70
2022/01/24 11:30:55;;;;;;;27.13;10.38;;;;;;;;;;4962942;28;20049;-70
2022/01/24 11:33:34;;;;;;;22.08;11.10;;;;;;;;;;4962878;28;20518;-72
2022/01/24 11:36:02;;;;;;;24.73;11.38;;;;;;;;;;4963084;28;20051;-66
2022/01/24 11:38:33;;;;;;;28.52;12.18;;;;;;;;;;4962301;28;20432;-69
2022/01/24 11:41:01;;;;;;;;;;;;;;;;;;4963506;28;20058;-69
2022/01/24 11:43:30;;;;;;;24.67;10.38;;;;;;;;;;4960821;28;19926;-70
2022/01/24 11:46:03;;;;;;;24.23;10.70;;;;;;;;;;4962762;28;20059;-70
2022/01/24 11:48:30;;;;;;;25.35;12.57;;;;;;;;;;4959672;28;20061;-69
2022/01/24 11:51:03;;;;;;;29.83;13.48;;;;;;;;;;4962681;28;20057;-69
2022/01/24 11:53:34;;;;;;;30.73;12.85;;;;;;;;;;4962076;28;20051;-70
2022/01/24 11:56:23;;;;;;;27.02;11.95;;;;;;;;;;4962842;28;20053;-67
2022/01/24 11:58:50;;;;;;;27.73;12.07;;;;;;;;;;4961999;28;20055;-69
2022/01/24 12:01:36;;;;;;;26.45;11.95;;;;;;;;;;4963124;28;20055;-71
2022/01/24 12:04:03;;;;;;;30.50;13.10;;;;;;;;;;4961959;28;20548;-71
2022/01/24 12:06:30;;;;;;;28.50;12.57;;;;;;;;;;4961849;28;20493;-70
2022/01/24 12:09:07;;;;;;;28.10;13.23;;;;;;;;;;4962825;28;20492;-71
2022/01/24 12:11:36;;;;;;;30.92;14.00;;;;;;;;;;4962241;28;20055;-71
2022/01/24 12:14:13;;;;;;;27.35;12.82;;;;;;;;;;4962101;28;20507;-71
2022/01/24 12:16:43;;;;;;;29.67;12.13;;;;;;;;;;4962279;28;20058;-70
2022/01/24 12:19:12;;;;;;;31.97;14.07;;;;;;;;;;4962611;28;20473;-71
2022/01/24 12:21:40;;;;;;;27.00;12.30;;;;;;;;;;4962208;28;20448;-71
2022/01/24 12:24:11;;;;;;;29.77;13.75;;;;;;;;;;4960462;28;20046;-71
2022/01/24 12:26:40;;;;;;;27.70;12.65;;;;;;;;;;4961585;28;20055;-70
2022/01/24 12:29:12;;;;;;;28.13;13.38;;;;;;;;;;4961381;28;20058;-71
2022/01/24 12:31:46;;;;;;;27.83;13.45;;;;;;;;;;4961760;28;20409;-70
2022/01/24 12:34:19;;;;;;;27.10;12.13;;;;;;;;;;4962736;28;20058;-71
2022/01/24 12:37:04;;;;;;;24.80;12.57;;;;;;;;;;4961989;28;20057;-70
2022/01/24 12:39:52;;;;;;;26.35;12.38;;;;;;;;;;4962013;28;20094;-72
2022/01/24 12:48:09;;;;;;;22.58;12.93;;;;;;;;;;4961676;28;20066;-71
2022/01/24 12:50:36;;;;;;;27.27;14.10;;;;;;;;;;4961670;28;20058;-71
2022/01/24 12:53:12;;;;;;;27.88;13.73;;;;;;;;;;4960373;28;20176;-74
2022/01/24 12:55:42;;;;;;;29.15;14.40;;;;;;;;;;4961430;28;20121;-71
2022/01/24 12:58:09;;;;;;;27.08;13.93;;;;;;;;;;4961396;28;20055;-71
2022/01/24 13:00:39;;;;;;;31.88;14.38;;;;;;;;;;4961210;28;20055;-71
2022/01/24 13:03:06;;;;;;;27.33;13.73;;;;;;;;;;4961619;28;20121;-71
2022/01/24 13:05:38;;;;;;;30.63;14.73;;;;;;;;;;4961024;28;20047;-69
2022/01/24 13:08:06;;;;;;;26.98;13.82;;;;;;;;;;4960769;28;20059;-71
2022/01/24 13:10:33;;;;;;;31.00;14.00;;;;;;;;;;4962027;28;20051;-70
2022/01/24 13:13:06;;;;;;;26.70;12.80;;;;;;;;;;4961620;28;20431;-71
2022/01/24 13:21:15;;;;;;;27.80;12.95;;;;;;;;;;4981558;23;20053;-59
2022/01/24 13:23:45;;;;;;;29.92;13.57;;;;;;;;;;4980317;28;20070;-60
2022/01/24 13:26:13;;;;;;;26.63;14.02;;;;;;;;;;4978802;28;20053;-60
2022/01/24 13:28:42;;;;;;;25.55;13.68;;;;;;;;;;4966154;28;20058;-59
2022/01/24 13:31:10;;;;;;;25.10;13.02;;;;;;;;;;4963404;28;20082;-58
2022/01/24 13:33:41;;;;;;;30.58;14.43;;;;;;;;;;4963197;28;20496;-58
2022/01/24 13:36:10;;;;;;;29.25;14.60;;;;;;;;;;4962140;28;20440;-59
2022/01/24 13:38:38;;;;;;;33.97;16.85;;;;;;;;;;4961990;28;20512;-59
2022/01/24 13:41:11;;;;;;;37.50;19.92;;;;;;;;;;4962707;28;20057;-58
2022/01/24 13:43:51;;;;;;;25.90;13.88;;;;;;;;;;4961700;28;20069;-61
2022/01/24 13:46:22;;;;;;;28.73;13.18;;;;;;;;;;4963267;28;20675;-58
2022/01/24 13:48:50;;;;;;;28.73;14.32;;;;;;;;;;4962172;28;20063;-58
2022/01/24 13:51:19;;;;;;;26.77;14.18;;;;;;;;;;4962347;28;20055;-59
2022/01/24 13:53:49;;;;;;;29.15;13.52;;;;;;;;;;4962026;28;20051;-59
2022/01/24 13:56:20;;;;;;;29.20;14.88;;;;;;;;;;4961733;28;20411;-60
2022/01/24 13:59:09;;;;;;;25.38;13.65;;;;;;;;;;4961325;28;20592;-59
2022/01/24 14:01:38;;;;;;;24.90;13.85;;;;;;;;;;4961253;28;20098;-59
2022/01/24 14:04:07;;;;;;;28.77;14.77;;;;;;;;;;4961744;28;20051;-59
2022/01/24 14:06:35;;;;;;;32.80;15.25;;;;;;;;;;4961153;28;20054;-60
2022/01/24 14:09:27;;;;;;;28.23;15.38;;;;;;;;;;4961501;28;20590;-60
2022/01/24 14:12:01;;;;;;;31.90;15.40;;;;;;;;;;4965841;28;20051;-58
2022/01/24 14:15:00;;;;;;;28.63;13.40;;;;;;;;;;4966212;28;20053;-59
2022/01/24 14:17:42;;;;;;;28.83;14.35;;;;;;;;;;4964973;28;20055;-58
2022/01/24 14:20:12;;;;;;;27.92;13.90;;;;;;;;;;4966244;28;20409;-59
2022/01/24 14:22:42;;;;;;;29.27;15.60;;;;;;;;;;4964530;28;20126;-60
2022/01/24 14:25:13;;;;;;;26.58;13.50;;;;;;;;;;4965821;28;20110;-59
2022/01/24 14:27:43;;;;;;;28.50;13.40;;;;;;;;;;4965959;28;20039;-59
2022/01/24 14:30:16;;;;;;;34.53;15.82;;;;;;;;;;4966318;28;20046;-60
2022/01/24 14:33:02;;;;;;;26.10;14.63;;;;;;;;;;4965870;28;20051;-58
2022/01/24 14:35:33;;;;;;;28.75;14.05;;;;;;;;;;4964742;28;20080;-59
2022/01/24 14:38:00;;;;;;;27.00;13.50;;;;;;;;;;4966059;28;20055;-60
2022/01/24 14:40:48;;;;;;;26.60;12.93;;;;;;;;;;4966580;28;20055;-59
2022/01/24 14:46:07;;;;;;;25.25;13.13;;;;;;;;;;4964467;28;20073;-60
2022/01/24 14:48:43;;;;;;;28.15;12.98;;;;;;;;;;4965411;28;20054;-60
2022/01/24 14:51:10;;;;;;;24.88;13.80;;;;;;;;;;4965250;28;20051;-59
2022/01/24 14:53:38;;;;;;;26.58;13.07;;;;;;;;;;4965628;28;20130;-60
2022/01/24 14:56:05;;;;;;;28.02;14.27;;;;;;;;;;4965315;28;20047;-58
2022/01/24 14:58:33;;;;;;;25.20;13.00;;;;;;;;;;4965476;28;20051;-58
2022/01/24 15:01:00;;;;;;;25.70;14.13;;;;;;;;;;4966438;28;20059;-57
2022/01/24 15:03:29;;;;;;;28.08;13.77;;;;;;;;;;4964962;28;20411;-59
2022/01/24 15:05:57;;;;;;;26.38;13.23;;;;;;;;;;4964995;28;20059;-58
2022/01/24 15:08:25;;;;;;;27.33;13.50;;;;;;;;;;4965002;28;20055;-59
2022/01/24 15:10:53;;;;;;;28.10;13.05;;;;;;;;;;4965211;28;20557;-59
2022/01/24 15:13:24;;;;;;;23.95;12.32;;;;;;;;;;4966454;28;20054;-57
2022/01/24 15:16:02;;;;;;;27.70;13.77;;;;;;;;;;4964415;28;20146;-56
2022/01/24 15:24:23;;;;;;;24.83;12.75;;;;;;;;;;4963423;28;20597;-59
2022/01/24 15:26:49;;;;;;;24.60;12.88;;;;;;;;;;4964390;28;20078;-59
2022/01/24 15:29:17;;;;;;;21.85;11.60;;;;;;;;;;4965976;28;20047;-57
2022/01/24 15:31:44;;;;;;;23.98;11.40;;;;;;;;;;4963973;28;20055;-59
2022/01/24 15:34:14;;;;;;;21.35;11.27;;;;;;;;;;4964574;28;20082;-57
2022/01/24 15:36:43;;;;;;;20.55;10.98;;;;;;;;;;4964068;28;20143;-57
2022/01/24 15:39:11;;;;;;;19.85;11.23;;;;;;;;;;4965401;28;20058;-58
2022/01/24 15:41:47;;;;;;;22.60;11.38;;;;;;;;;;4965641;28;20046;-59
2022/01/24 15:47:18;;;;;;;20.25;10.98;;;;;;;;;;4942931;28;20059;-56
2022/01/24 15:49:47;;;;;;;29.27;18.10;;;;;;;;;;4964453;28;20536;-58
2022/01/24 15:52:15;;;;;;;20.60;10.88;;;;;;;;;;4963262;28;20118;-58
2022/01/24 15:54:46;;;;;;;18.70;9.52;;;;;;;;;;4964259;28;20055;-58
2022/01/24 15:59:58;;;;;;;23.30;11.73;;;;;;;;;;4963024;28;20516;-57
2022/01/24 16:02:25;;;;;;;19.58;11.23;;;;;;;;;;4963822;28;20050;-58
2022/01/24 16:04:54;;;;;;;21.02;10.95;;;;;;;;;;4964029;28;20050;-59
2022/01/24 16:07:21;;;;;;;23.85;12.63;;;;;;;;;;4964846;28;20055;-59
2022/01/24 16:09:48;;;;;;;20.00;12.27;;;;;;;;;;4963579;28;20051;-58
2022/01/24 16:12:15;;;;;;;20.05;11.30;;;;;;;;;;4963374;28;20154;-59
2022/01/24 16:14:43;;;;;;;21.52;11.30;;;;;;;;;;4964092;28;20055;-59